Houston, Texas
Traffic Map
Current Weather Conditions
Houston, Texas
Scattered Clouds
Scattered Clouds
75°
Feels Like: 75°
Wind Chill: 75° Ceiling: Unl
Heat Index: 75° Visibility: 10mi
Dew Point: 72° Wind: 3mph
Humidity: 90% Direction: 180° (S)
Pressure: 29.99in Gusts: 0mph
Raw Report DataKIAH 300553Z 18003KT 10SM SCT250 24/22 A2999 RMK AO2 SLP157 T02390222 10300 20239 403170211 51007
Traffic Incident Summary
Active as of:
Severity:
Category:
InformationThere was an issue retrieving the traffic information for this location. Please try a different location or try again shortly.
Advertisements
Track Severe Weather on mobile